sensor_id;sensor_type;location;lat;lon;timestamp;pressure;altitude;pressure_sealevel;temperature;humidity
47154;BME280;32907;41.412;2.164;2023-03-13T00:01:47;100765.28;;;21.37;49.53
47154;BME280;32907;41.412;2.164;2023-03-13T00:04:16;100746.84;;;21.29;49.48
47154;BME280;32907;41.412;2.164;2023-03-13T00:06:44;100760.31;;;21.39;49.45
47154;BME280;32907;41.412;2.164;2023-03-13T00:09:14;100768.28;;;21.36;49.29
47154;BME280;32907;41.412;2.164;2023-03-13T00:11:44;100761.22;;;21.35;49.44
47154;BME280;32907;41.412;2.164;2023-03-13T00:14:12;100737.44;;;21.16;49.63
47154;BME280;32907;41.412;2.164;2023-03-13T00:16:40;100767.78;;;21.34;49.53
47154;BME280;32907;41.412;2.164;2023-03-13T00:19:08;100722.63;;;21.04;49.49
47154;BME280;32907;41.412;2.164;2023-03-13T00:21:36;100691.78;;;20.84;49.41
47154;BME280;32907;41.412;2.164;2023-03-13T00:24:05;100764.22;;;21.33;49.66
47154;BME280;32907;41.412;2.164;2023-03-13T00:26:33;100766.38;;;21.36;49.64
47154;BME280;32907;41.412;2.164;2023-03-13T00:29:00;100761.44;;;21.38;49.78
47154;BME280;32907;41.412;2.164;2023-03-13T00:31:29;100744.69;;;21.26;49.70
47154;BME280;32907;41.412;2.164;2023-03-13T00:34:02;100761.22;;;21.35;49.43
47154;BME280;32907;41.412;2.164;2023-03-13T00:36:32;100752.88;;;21.26;49.48
47154;BME280;32907;41.412;2.164;2023-03-13T00:39:03;100741.94;;;21.26;49.48
47154;BME280;32907;41.412;2.164;2023-03-13T00:41:35;100652.03;;;20.59;49.61
47154;BME280;32907;41.412;2.164;2023-03-13T00:44:04;100758.78;;;21.33;49.71
47154;BME280;32907;41.412;2.164;2023-03-13T00:46:32;100696.31;;;20.94;49.46
47154;BME280;32907;41.412;2.164;2023-03-13T00:49:00;100754.97;;;21.34;49.54
47154;BME280;32907;41.412;2.164;2023-03-13T00:51:28;100765.63;;;21.31;49.36
47154;BME280;32907;41.412;2.164;2023-03-13T00:53:58;100745.53;;;21.21;49.44
47154;BME280;32907;41.412;2.164;2023-03-13T00:56:30;100729.34;;;21.11;49.70
47154;BME280;32907;41.412;2.164;2023-03-13T00:58:58;100770.50;;;21.34;49.60
47154;BME280;32907;41.412;2.164;2023-03-13T01:01:32;100759.06;;;21.32;49.52
47154;BME280;32907;41.412;2.164;2023-03-13T01:04:04;100740.25;;;21.11;49.74
47154;BME280;32907;41.412;2.164;2023-03-13T01:06:34;100767.84;;;21.29;49.84
47154;BME280;32907;41.412;2.164;2023-03-13T01:09:04;100766.44;;;21.31;49.61
47154;BME280;32907;41.412;2.164;2023-03-13T01:11:36;100758.31;;;21.26;49.97
47154;BME280;32907;41.412;2.164;2023-03-13T01:14:09;100719.81;;;21.09;50.05
47154;BME280;32907;41.412;2.164;2023-03-13T01:16:37;100756.13;;;21.28;50.10
47154;BME280;32907;41.412;2.164;2023-03-13T01:19:11;100728.28;;;21.07;49.78
47154;BME280;32907;41.412;2.164;2023-03-13T01:21:41;100697.38;;;20.93;49.95
47154;BME280;32907;41.412;2.164;2023-03-13T01:24:10;100736.50;;;21.26;49.77
47154;BME280;32907;41.412;2.164;2023-03-13T01:26:38;100735.69;;;21.26;49.81
47154;BME280;32907;41.412;2.164;2023-03-13T01:29:06;100732.22;;;21.20;49.82
47154;BME280;32907;41.412;2.164;2023-03-13T01:31:34;100715.69;;;21.11;49.73
47154;BME280;32907;41.412;2.164;2023-03-13T01:34:06;100729.41;;;21.25;49.51
47154;BME280;32907;41.412;2.164;2023-03-13T01:36:35;100691.66;;;20.94;49.67
47154;BME280;32907;41.412;2.164;2023-03-13T01:39:04;100727.56;;;21.20;49.47
47154;BME280;32907;41.412;2.164;2023-03-13T01:41:32;100712.38;;;21.14;49.53
47154;BME280;32907;41.412;2.164;2023-03-13T01:44:00;100714.00;;;21.15;49.72
47154;BME280;32907;41.412;2.164;2023-03-13T01:46:34;100707.81;;;21.10;49.48
47154;BME280;32907;41.412;2.164;2023-03-13T01:49:14;100665.06;;;20.86;49.16
47154;BME280;32907;41.412;2.164;2023-03-13T01:52:18;100721.97;;;21.12;49.43
47154;BME280;32907;41.412;2.164;2023-03-13T01:59:56;100702.63;;;20.89;49.30
47154;BME280;32907;41.412;2.164;2023-03-13T02:02:26;100690.41;;;20.87;49.38
47154;BME280;32907;41.412;2.164;2023-03-13T02:04:58;100682.94;;;20.74;49.10
47154;BME280;32907;41.412;2.164;2023-03-13T02:07:31;100674.63;;;20.84;49.26
47154;BME280;32907;41.412;2.164;2023-03-13T02:10:00;100641.84;;;20.70;49.31
47154;BME280;32907;41.412;2.164;2023-03-13T02:12:33;100689.44;;;20.97;49.72
47154;BME280;32907;41.412;2.164;2023-03-13T02:15:11;100639.63;;;20.72;49.52
47154;BME280;32907;41.412;2.164;2023-03-13T02:17:41;100654.22;;;20.81;49.66
47154;BME280;32907;41.412;2.164;2023-03-13T02:20:10;100659.66;;;20.81;49.58
47154;BME280;32907;41.412;2.164;2023-03-13T02:25:34;100659.31;;;20.88;49.90
47154;BME280;32907;41.412;2.164;2023-03-13T02:28:06;100634.75;;;20.69;50.19
47154;BME280;32907;41.412;2.164;2023-03-13T02:30:37;100668.81;;;20.90;50.04
47154;BME280;32907;41.412;2.164;2023-03-13T02:33:06;100582.22;;;20.45;50.47
47154;BME280;32907;41.412;2.164;2023-03-13T02:35:34;100650.84;;;20.89;50.57
47154;BME280;32907;41.412;2.164;2023-03-13T02:38:10;100641.34;;;20.87;50.85
47154;BME280;32907;41.412;2.164;2023-03-13T02:40:42;100643.78;;;20.88;50.47
47154;BME280;32907;41.412;2.164;2023-03-13T02:43:32;100648.41;;;20.88;50.76
47154;BME280;32907;41.412;2.164;2023-03-13T02:46:20;100636.41;;;20.89;50.87
47154;BME280;32907;41.412;2.164;2023-03-13T02:48:54;100629.09;;;20.84;50.40
47154;BME280;32907;41.412;2.164;2023-03-13T02:53:56;100635.28;;;20.90;50.81
47154;BME280;32907;41.412;2.164;2023-03-13T02:56:26;100629.09;;;20.84;50.96
47154;BME280;32907;41.412;2.164;2023-03-13T02:58:55;100546.41;;;20.32;50.84
47154;BME280;32907;41.412;2.164;2023-03-13T03:01:25;100614.81;;;20.74;50.93
47154;BME280;32907;41.412;2.164;2023-03-13T03:03:53;100549.75;;;20.29;50.98
47154;BME280;32907;41.412;2.164;2023-03-13T03:06:21;100581.41;;;20.44;51.18
47154;BME280;32907;41.412;2.164;2023-03-13T03:08:49;100610.91;;;20.80;51.60
47154;BME280;32907;41.412;2.164;2023-03-13T03:11:17;100584.22;;;20.58;50.95
47154;BME280;32907;41.412;2.164;2023-03-13T03:13:50;100605.31;;;20.71;51.43
47154;BME280;32907;41.412;2.164;2023-03-13T03:16:18;100564.22;;;20.49;51.20
47154;BME280;32907;41.412;2.164;2023-03-13T03:18:47;100594.63;;;20.75;51.28
47154;BME280;32907;41.412;2.164;2023-03-13T03:21:15;100588.38;;;20.74;51.31
47154;BME280;32907;41.412;2.164;2023-03-13T03:23:43;100553.75;;;20.56;51.04
47154;BME280;32907;41.412;2.164;2023-03-13T03:26:11;100546.47;;;20.51;51.17
47154;BME280;32907;41.412;2.164;2023-03-13T03:28:40;100605.09;;;20.86;51.01
47154;BME280;32907;41.412;2.164;2023-03-13T03:31:13;100575.25;;;20.76;51.15
47154;BME280;32907;41.412;2.164;2023-03-13T03:33:42;100583.66;;;20.80;51.02
47154;BME280;32907;41.412;2.164;2023-03-13T03:36:15;100579.59;;;20.77;51.21
47154;BME280;32907;41.412;2.164;2023-03-13T03:38:45;100532.38;;;20.44;51.26
47154;BME280;32907;41.412;2.164;2023-03-13T03:41:16;100593.66;;;20.84;51.55
47154;BME280;32907;41.412;2.164;2023-03-13T03:43:44;100595.31;;;20.85;51.45
47154;BME280;32907;41.412;2.164;2023-03-13T03:46:16;100574.75;;;20.74;51.38
47154;BME280;32907;41.412;2.164;2023-03-13T03:48:44;100530.53;;;20.39;51.25
47154;BME280;32907;41.412;2.164;2023-03-13T03:51:13;100595.66;;;20.79;51.64
47154;BME280;32907;41.412;2.164;2023-03-13T03:53:43;100594.25;;;20.81;51.50
47154;BME280;32907;41.412;2.164;2023-03-13T03:56:14;100590.44;;;20.82;51.49
47154;BME280;32907;41.412;2.164;2023-03-13T03:58:47;100590.94;;;20.84;51.04
47154;BME280;32907;41.412;2.164;2023-03-13T04:01:20;100574.75;;;20.74;51.10
47154;BME280;32907;41.412;2.164;2023-03-13T04:03:48;100581.44;;;20.82;51.25
47154;BME280;32907;41.412;2.164;2023-03-13T04:06:18;100586.91;;;20.82;51.19
47154;BME280;32907;41.412;2.164;2023-03-13T04:08:46;100591.25;;;20.83;51.03
47154;BME280;32907;41.412;2.164;2023-03-13T04:11:17;100543.44;;;20.53;51.35
47154;BME280;32907;41.412;2.164;2023-03-13T04:13:52;100554.72;;;20.65;51.10
47154;BME280;32907;41.412;2.164;2023-03-13T04:16:20;100587.63;;;20.87;50.83
47154;BME280;32907;41.412;2.164;2023-03-13T04:18:48;100575.19;;;20.81;50.84
47154;BME280;32907;41.412;2.164;2023-03-13T04:21:17;100543.50;;;20.66;50.76
47154;BME280;32907;41.412;2.164;2023-03-13T04:23:56;100568.06;;;20.85;50.88
47154;BME280;32907;41.412;2.164;2023-03-13T04:26:24;100564.28;;;20.81;50.79
47154;BME280;32907;41.412;2.164;2023-03-13T04:28:54;100529.16;;;20.61;51.03
47154;BME280;32907;41.412;2.164;2023-03-13T04:31:42;100546.47;;;20.70;50.99
47154;BME280;32907;41.412;2.164;2023-03-13T04:34:22;100549.72;;;20.72;50.92
47154;BME280;32907;41.412;2.164;2023-03-13T04:37:19;100506.50;;;20.47;50.97
47154;BME280;32907;41.412;2.164;2023-03-13T04:40:23;100512.75;;;20.47;51.11
47154;BME280;32907;41.412;2.164;2023-03-13T04:43:15;100523.19;;;20.59;51.02
47154;BME280;32907;41.412;2.164;2023-03-13T04:45:59;100555.66;;;20.74;50.79
47154;BME280;32907;41.412;2.164;2023-03-13T04:48:47;100566.41;;;20.84;51.01
47154;BME280;32907;41.412;2.164;2023-03-13T04:51:35;100559.44;;;20.78;51.07
47154;BME280;32907;41.412;2.164;2023-03-13T04:54:22;100554.06;;;20.73;51.05
47154;BME280;32907;41.412;2.164;2023-03-13T04:57:08;100574.38;;;20.81;51.24
47154;BME280;32907;41.412;2.164;2023-03-13T04:59:41;100572.47;;;20.81;51.05
47154;BME280;32907;41.412;2.164;2023-03-13T05:02:29;100559.50;;;20.73;51.18
47154;BME280;32907;41.412;2.164;2023-03-13T05:05:07;100561.13;;;20.74;51.10
47154;BME280;32907;41.412;2.164;2023-03-13T05:07:54;100562.16;;;20.78;50.89
47154;BME280;32907;41.412;2.164;2023-03-13T05:10:45;100507.81;;;20.49;50.84
47154;BME280;32907;41.412;2.164;2023-03-13T05:13:13;100545.38;;;20.71;51.24
47154;BME280;32907;41.412;2.164;2023-03-13T05:15:50;100567.50;;;20.83;50.95
47154;BME280;32907;41.412;2.164;2023-03-13T05:18:37;100560.31;;;20.74;50.91
47154;BME280;32907;41.412;2.164;2023-03-13T05:21:26;100544.13;;;20.63;51.10
47154;BME280;32907;41.412;2.164;2023-03-13T05:24:14;100520.03;;;20.52;51.77
47154;BME280;32907;41.412;2.164;2023-03-13T05:27:21;100567.50;;;20.83;51.72
47154;BME280;32907;41.412;2.164;2023-03-13T05:30:03;100563.19;;;20.82;51.70
47154;BME280;32907;41.412;2.164;2023-03-13T05:32:54;100548.41;;;20.70;51.13
47154;BME280;32907;41.412;2.164;2023-03-13T05:35:51;100578.13;;;20.85;51.29
47154;BME280;32907;41.412;2.164;2023-03-13T05:38:22;100558.84;;;20.81;50.98
47154;BME280;32907;41.412;2.164;2023-03-13T05:41:16;100565.31;;;20.85;50.77
47154;BME280;32907;41.412;2.164;2023-03-13T05:44:02;100572.41;;;20.86;50.90
47154;BME280;32907;41.412;2.164;2023-03-13T05:46:53;100562.16;;;20.78;50.75
47154;BME280;32907;41.412;2.164;2023-03-13T05:49:36;100536.25;;;20.62;50.58
47154;BME280;32907;41.412;2.164;2023-03-13T05:52:28;100542.09;;;20.69;50.76
47154;BME280;32907;41.412;2.164;2023-03-13T05:54:58;100561.84;;;20.80;50.95
47154;BME280;32907;41.412;2.164;2023-03-13T05:57:59;100557.53;;;20.79;51.22
47154;BME280;32907;41.412;2.164;2023-03-13T06:00:47;100509.72;;;20.49;51.23
47154;BME280;32907;41.412;2.164;2023-03-13T06:03:33;100533.66;;;20.71;51.41
47154;BME280;32907;41.412;2.164;2023-03-13T06:06:02;100518.47;;;20.64;51.26
47154;BME280;32907;41.412;2.164;2023-03-13T06:08:36;100515.53;;;20.61;51.40
47154;BME280;32907;41.412;2.164;2023-03-13T06:11:04;100545.22;;;20.81;50.83
47154;BME280;32907;41.412;2.164;2023-03-13T06:13:33;100498.47;;;20.55;50.50
47154;BME280;32907;41.412;2.164;2023-03-13T06:16:19;100555.13;;;20.91;50.63
47154;BME280;32907;41.412;2.164;2023-03-13T06:18:48;100537.53;;;20.83;50.17
47154;BME280;32907;41.412;2.164;2023-03-13T06:21:15;100510.81;;;20.66;50.56
47154;BME280;32907;41.412;2.164;2023-03-13T06:23:43;100510.63;;;20.63;50.62
47154;BME280;32907;41.412;2.164;2023-03-13T06:26:11;100526.88;;;20.87;50.79
47154;BME280;32907;41.412;2.164;2023-03-13T06:28:39;100517.94;;;20.81;51.00
47154;BME280;32907;41.412;2.164;2023-03-13T06:31:07;100530.91;;;20.89;51.02
47154;BME280;32907;41.412;2.164;2023-03-13T06:33:35;100540.25;;;21.02;51.16
47154;BME280;32907;41.412;2.164;2023-03-13T06:36:03;100532.03;;;20.88;50.48
47154;BME280;32907;41.412;2.164;2023-03-13T06:38:32;100490.19;;;20.60;50.19
47154;BME280;32907;41.412;2.164;2023-03-13T06:41:00;100556.31;;;21.04;50.17
47154;BME280;32907;41.412;2.164;2023-03-13T06:43:28;100502.34;;;20.68;50.71
47154;BME280;32907;41.412;2.164;2023-03-13T06:46:02;100545.03;;;21.10;50.93
47154;BME280;32907;41.412;2.164;2023-03-13T06:48:30;100522.25;;;21.01;51.42
47154;BME280;32907;41.412;2.164;2023-03-13T06:50:58;100517.41;;;20.98;51.41
47154;BME280;32907;41.412;2.164;2023-03-13T06:53:26;100532.59;;;21.04;50.69
47154;BME280;32907;41.412;2.164;2023-03-13T06:55:54;100535.59;;;21.03;50.13
47154;BME280;32907;41.412;2.164;2023-03-13T06:58:23;100453.78;;;20.56;50.09
47154;BME280;32907;41.412;2.164;2023-03-13T07:01:04;100536.03;;;21.10;49.90
47154;BME280;32907;41.412;2.164;2023-03-13T07:03:34;100543.69;;;21.08;50.01
47154;BME280;32907;41.412;2.164;2023-03-13T07:06:02;100548.63;;;21.06;49.73
47154;BME280;32907;41.412;2.164;2023-03-13T07:08:32;100554.41;;;21.04;49.64
47154;BME280;32907;41.412;2.164;2023-03-13T07:11:06;100535.63;;;20.84;49.72
47154;BME280;32907;41.412;2.164;2023-03-13T07:13:37;100571.88;;;21.03;49.59
47154;BME280;32907;41.412;2.164;2023-03-13T07:16:07;100560.72;;;21.00;49.32
47154;BME280;32907;41.412;2.164;2023-03-13T07:18:36;100564.06;;;20.97;49.45
47154;BME280;32907;41.412;2.164;2023-03-13T07:21:06;100547.44;;;20.79;49.29
47154;BME280;32907;41.412;2.164;2023-03-13T07:23:35;100527.97;;;20.67;49.44
47154;BME280;32907;41.412;2.164;2023-03-13T07:26:06;100561.94;;;20.93;49.43
47154;BME280;32907;41.412;2.164;2023-03-13T07:28:35;100553.44;;;20.76;49.69
47154;BME280;32907;41.412;2.164;2023-03-13T07:33:36;100558.22;;;20.84;49.26
47154;BME280;32907;41.412;2.164;2023-03-13T07:36:04;100514.66;;;20.65;49.43
47154;BME280;32907;41.412;2.164;2023-03-13T07:38:32;100551.47;;;20.82;49.53
47154;BME280;32907;41.412;2.164;2023-03-13T07:41:03;100564.66;;;20.93;49.43
47154;BME280;32907;41.412;2.164;2023-03-13T07:43:32;100560.00;;;20.94;49.60
47154;BME280;32907;41.412;2.164;2023-03-13T07:46:03;100551.53;;;20.95;50.09
47154;BME280;32907;41.412;2.164;2023-03-13T07:48:34;100532.91;;;20.84;50.12
47154;BME280;32907;41.412;2.164;2023-03-13T07:51:04;100545.47;;;20.99;49.82
47154;BME280;32907;41.412;2.164;2023-03-13T07:53:32;100543.78;;;21.03;49.82
47154;BME280;32907;41.412;2.164;2023-03-13T07:56:05;100485.78;;;20.64;49.65
47154;BME280;32907;41.412;2.164;2023-03-13T07:58:36;100547.03;;;21.05;49.49
47154;BME280;32907;41.412;2.164;2023-03-13T08:01:15;100542.69;;;21.04;49.13
47154;BME280;32907;41.412;2.164;2023-03-13T08:03:43;100525.09;;;20.96;49.44
47154;BME280;32907;41.412;2.164;2023-03-13T08:06:15;100529.13;;;20.99;49.57
47154;BME280;32907;41.412;2.164;2023-03-13T08:08:44;100543.13;;;21.11;49.65
47154;BME280;32907;41.412;2.164;2023-03-13T08:11:18;100542.50;;;21.14;49.37
47154;BME280;32907;41.412;2.164;2023-03-13T08:13:46;100531.16;;;21.07;49.15
47154;BME280;32907;41.412;2.164;2023-03-13T08:16:18;100545.66;;;21.21;49.38
47154;BME280;32907;41.412;2.164;2023-03-13T08:18:51;100536.25;;;21.13;49.09
47154;BME280;32907;41.412;2.164;2023-03-13T08:21:27;100496.59;;;20.88;49.10
47154;BME280;32907;41.412;2.164;2023-03-13T08:23:57;100519.03;;;20.99;48.84
47154;BME280;32907;41.412;2.164;2023-03-13T08:26:27;100528.94;;;21.09;48.97
47154;BME280;32907;41.412;2.164;2023-03-13T08:28:58;100483.47;;;20.90;48.68
47154;BME280;32907;41.412;2.164;2023-03-13T08:31:47;100540.72;;;21.23;49.08
47154;BME280;32907;41.412;2.164;2023-03-13T08:34:16;100534.81;;;21.16;48.99
47154;BME280;32907;41.412;2.164;2023-03-13T08:36:45;100546.94;;;21.29;48.90
47154;BME280;32907;41.412;2.164;2023-03-13T08:39:16;100541.97;;;21.31;48.81
47154;BME280;32907;41.412;2.164;2023-03-13T08:41:45;100493.19;;;20.97;48.92
47154;BME280;32907;41.412;2.164;2023-03-13T08:44:15;100536.88;;;21.24;48.69
47154;BME280;32907;41.412;2.164;2023-03-13T08:46:44;100524.34;;;21.23;48.67
47154;BME280;32907;41.412;2.164;2023-03-13T08:49:12;100528.75;;;21.38;48.75
47154;BME280;32907;41.412;2.164;2023-03-13T08:51:40;100531.88;;;21.31;48.32
47154;BME280;32907;41.412;2.164;2023-03-13T08:54:09;100543.28;;;21.33;47.82
47154;BME280;32907;41.412;2.164;2023-03-13T08:56:37;100541.97;;;21.31;48.17
47154;BME280;32907;41.412;2.164;2023-03-13T08:59:05;100494.91;;;21.06;48.11
47154;BME280;32907;41.412;2.164;2023-03-13T09:01:34;100522.22;;;21.20;48.06
47154;BME280;32907;41.412;2.164;2023-03-13T09:04:03;100530.88;;;21.27;48.11
47154;BME280;32907;41.412;2.164;2023-03-13T09:06:34;100512.44;;;21.19;48.06
47154;BME280;32907;41.412;2.164;2023-03-13T09:09:04;100523.75;;;21.26;48.43
47154;BME280;32907;41.412;2.164;2023-03-13T09:11:33;100516.13;;;21.28;48.72
47154;BME280;32907;41.412;2.164;2023-03-13T09:14:01;100492.91;;;21.12;48.76
47154;BME280;32907;41.412;2.164;2023-03-13T09:16:31;100516.00;;;21.33;48.34
47154;BME280;32907;41.412;2.164;2023-03-13T09:19:00;100494.03;;;21.24;48.48
47154;BME280;32907;41.412;2.164;2023-03-13T09:21:32;100453.28;;;21.01;48.45
47154;BME280;32907;41.412;2.164;2023-03-13T09:24:01;100479.09;;;21.22;48.76
47154;BME280;32907;41.412;2.164;2023-03-13T09:26:29;100492.69;;;21.27;48.83
47154;BME280;32907;41.412;2.164;2023-03-13T09:28:57;100463.91;;;21.02;49.21
47154;BME280;32907;41.412;2.164;2023-03-13T09:31:31;100495.97;;;21.24;48.79
47154;BME280;32907;41.412;2.164;2023-03-13T09:33:59;100485.00;;;21.29;49.11
47154;BME280;32907;41.412;2.164;2023-03-13T09:36:27;100435.84;;;21.02;49.12
47154;BME280;32907;41.412;2.164;2023-03-13T09:38:58;100475.47;;;21.27;49.27
47154;BME280;32907;41.412;2.164;2023-03-13T09:41:33;100472.75;;;21.27;49.29
47154;BME280;32907;41.412;2.164;2023-03-13T09:44:17;100453.03;;;21.16;49.54
47154;BME280;32907;41.412;2.164;2023-03-13T09:52:15;100460.00;;;21.22;49.69
47154;BME280;32907;41.412;2.164;2023-03-13T09:55:16;100424.34;;;21.05;50.46
47154;BME280;32907;41.412;2.164;2023-03-13T10:00:43;100458.22;;;21.31;50.52
47154;BME280;32907;41.412;2.164;2023-03-13T10:03:21;100434.06;;;21.11;50.52
47154;BME280;32907;41.412;2.164;2023-03-13T10:05:54;100463.47;;;21.41;51.05
47154;BME280;32907;41.412;2.164;2023-03-13T10:08:26;100466.13;;;21.46;50.16
47154;BME280;32907;41.412;2.164;2023-03-13T10:11:09;100465.00;;;21.47;50.36
47154;BME280;32907;41.412;2.164;2023-03-13T10:16:36;100446.13;;;21.37;50.68
47154;BME280;32907;41.412;2.164;2023-03-13T10:19:12;100398.88;;;21.09;50.33
47154;BME280;32907;41.412;2.164;2023-03-13T10:21:46;100403.44;;;21.14;50.65
47154;BME280;32907;41.412;2.164;2023-03-13T10:26:47;100455.91;;;21.38;50.60
47154;BME280;32907;41.412;2.164;2023-03-13T10:29:21;100433.47;;;21.41;50.86
47154;BME280;32907;41.412;2.164;2023-03-13T10:32:04;100410.88;;;21.27;51.00
47154;BME280;32907;41.412;2.164;2023-03-13T10:35:11;100372.44;;;21.10;50.65
47154;BME280;32907;41.412;2.164;2023-03-13T10:37:46;100422.47;;;21.46;51.12
47154;BME280;32907;41.412;2.164;2023-03-13T10:40:26;100418.31;;;21.49;51.22
47154;BME280;32907;41.412;2.164;2023-03-13T10:43:06;100383.06;;;21.39;51.64
47154;BME280;32907;41.412;2.164;2023-03-13T10:45:36;100405.81;;;21.62;51.71
47154;BME280;32907;41.412;2.164;2023-03-13T10:48:13;100399.44;;;21.66;51.69
47154;BME280;32907;41.412;2.164;2023-03-13T10:50:44;100390.94;;;21.68;51.39
47154;BME280;32907;41.412;2.164;2023-03-13T11:03:45;100381.63;;;21.69;50.82
47154;BME280;32907;41.412;2.164;2023-03-13T11:06:24;100377.31;;;21.68;50.91
47154;BME280;32907;41.412;2.164;2023-03-13T11:09:16;100378.91;;;21.69;50.66
47154;BME280;32907;41.412;2.164;2023-03-13T11:11:49;100377.31;;;21.68;50.78
47154;BME280;32907;41.412;2.164;2023-03-13T11:14:22;100358.44;;;21.58;51.08
47154;BME280;32907;41.412;2.164;2023-03-13T11:17:10;100365.59;;;21.67;51.30
47154;BME280;32907;41.412;2.164;2023-03-13T11:30:21;100351.16;;;21.89;51.37
47154;BME280;32907;41.412;2.164;2023-03-13T11:33:01;100282.53;;;21.60;51.79
47154;BME280;32907;41.412;2.164;2023-03-13T11:35:45;100338.19;;;21.95;51.02
47154;BME280;32907;41.412;2.164;2023-03-13T11:41:59;100320.38;;;21.97;51.16
47154;BME280;32907;41.412;2.164;2023-03-13T12:03:50;100280.69;;;21.91;50.75
47154;BME280;32907;41.412;2.164;2023-03-13T12:06:42;100281.81;;;21.90;51.03
47154;BME280;32907;41.412;2.164;2023-03-13T12:12:01;100264.44;;;21.86;51.09
47154;BME280;32907;41.412;2.164;2023-03-13T12:14:42;100252.69;;;21.86;51.14
47154;BME280;32907;41.412;2.164;2023-03-13T12:17:27;100266.97;;;22.05;50.78
47154;BME280;32907;41.412;2.164;2023-03-13T12:20:12;100228.81;;;21.91;50.87
47154;BME280;32907;41.412;2.164;2023-03-13T12:22:50;100243.75;;;22.08;50.82
47154;BME280;32907;41.412;2.164;2023-03-13T12:28:24;100217.16;;;21.99;50.61
47154;BME280;32907;41.412;2.164;2023-03-13T12:37:33;100167.44;;;21.89;50.61
47154;BME280;32907;41.412;2.164;2023-03-13T12:40:00;100190.50;;;22.05;50.71
47154;BME280;32907;41.412;2.164;2023-03-13T12:42:45;100186.50;;;22.02;50.63
47154;BME280;32907;41.412;2.164;2023-03-13T12:45:17;100185.28;;;22.09;50.53
47154;BME280;32907;41.412;2.164;2023-03-13T12:56:40;100168.09;;;22.08;51.20
47154;BME280;32907;41.412;2.164;2023-03-13T13:01:48;100139.53;;;21.92;51.09
47154;BME280;32907;41.412;2.164;2023-03-13T13:04:30;100129.88;;;21.86;51.02
47154;BME280;32907;41.412;2.164;2023-03-13T13:07:06;100153.72;;;22.02;51.29
47154;BME280;32907;41.412;2.164;2023-03-13T13:09:36;100121.53;;;21.82;51.24
47154;BME280;32907;41.412;2.164;2023-03-13T13:20:27;100151.19;;;22.06;51.31
47154;BME280;32907;41.412;2.164;2023-03-13T13:25:51;100121.97;;;22.06;51.25
47154;BME280;32907;41.412;2.164;2023-03-13T13:28:31;100111.31;;;22.05;51.90
47154;BME280;32907;41.412;2.164;2023-03-13T13:31:00;100067.19;;;21.72;51.51
47154;BME280;32907;41.412;2.164;2023-03-13T13:38:42;100065.94;;;21.78;51.76
47154;BME280;32907;41.412;2.164;2023-03-13T13:43:44;100076.13;;;21.95;52.03
47154;BME280;32907;41.412;2.164;2023-03-13T13:57:05;100022.81;;;21.97;51.92
47154;BME280;32907;41.412;2.164;2023-03-13T13:59:47;99994.97;;;21.78;52.19
47154;BME280;32907;41.412;2.164;2023-03-13T14:02:25;99968.09;;;21.63;52.23
47154;BME280;32907;41.412;2.164;2023-03-13T14:10:41;99997.44;;;21.97;52.04
47154;BME280;32907;41.412;2.164;2023-03-13T14:13:17;99976.34;;;21.80;52.08
47154;BME280;32907;41.412;2.164;2023-03-13T14:15:47;99991.94;;;21.88;51.46
47154;BME280;32907;41.412;2.164;2023-03-13T14:18:26;100005.34;;;21.98;51.79
47154;BME280;32907;41.412;2.164;2023-03-13T14:26:29;99941.53;;;21.37;50.82
47154;BME280;32907;41.412;2.164;2023-03-13T14:29:00;100002.38;;;21.86;51.01
47154;BME280;32907;41.412;2.164;2023-03-13T14:31:33;99940.13;;;21.48;51.36
47154;BME280;32907;41.412;2.164;2023-03-13T14:34:08;99981.16;;;21.66;51.18
47154;BME280;32907;41.412;2.164;2023-03-13T14:36:56;100003.84;;;21.84;51.16
47154;BME280;32907;41.412;2.164;2023-03-13T14:39:44;99975.84;;;21.69;51.06
47154;BME280;32907;41.412;2.164;2023-03-13T14:44:46;100001.44;;;21.82;50.51
47154;BME280;32907;41.412;2.164;2023-03-13T14:47:28;99962.50;;;21.59;50.33
47154;BME280;32907;41.412;2.164;2023-03-13T14:50:02;100000.44;;;21.78;50.30
47154;BME280;32907;41.412;2.164;2023-03-13T14:52:32;99983.38;;;21.72;50.37
47154;BME280;32907;41.412;2.164;2023-03-13T14:55:03;99975.34;;;21.59;50.02
47154;BME280;32907;41.412;2.164;2023-03-13T14:57:33;99943.84;;;21.53;49.88
47154;BME280;32907;41.412;2.164;2023-03-13T15:05:48;99930.22;;;21.53;50.30
47154;BME280;32907;41.412;2.164;2023-03-13T15:08:23;99944.53;;;21.67;50.17
47154;BME280;32907;41.412;2.164;2023-03-13T15:10:51;99938.41;;;21.61;49.79
47154;BME280;32907;41.412;2.164;2023-03-13T15:13:23;99941.66;;;21.72;50.14
47154;BME280;32907;41.412;2.164;2023-03-13T15:15:54;99941.19;;;21.70;50.14
47154;BME280;32907;41.412;2.164;2023-03-13T15:18:24;99924.94;;;21.65;49.97
47154;BME280;32907;41.412;2.164;2023-03-13T15:21:37;99920.16;;;21.70;50.43
47154;BME280;32907;41.412;2.164;2023-03-13T15:26:21;99895.69;;;21.57;50.24
47154;BME280;32907;41.412;2.164;2023-03-13T15:28:50;99894.44;;;21.63;50.10
47154;BME280;32907;41.412;2.164;2023-03-13T15:31:21;99870.31;;;21.47;49.89
47154;BME280;32907;41.412;2.164;2023-03-13T15:33:55;99902.66;;;21.71;50.06
47154;BME280;32907;41.412;2.164;2023-03-13T15:36:24;99871.63;;;21.50;49.72
47154;BME280;32907;41.412;2.164;2023-03-13T15:38:52;99868.06;;;21.49;49.87
47154;BME280;32907;41.412;2.164;2023-03-13T15:41:21;99842.38;;;21.33;50.13
47154;BME280;32907;41.412;2.164;2023-03-13T15:43:49;99886.13;;;21.68;49.87
47154;BME280;32907;41.412;2.164;2023-03-13T15:46:19;99851.06;;;21.44;50.00
47154;BME280;32907;41.412;2.164;2023-03-13T15:48:47;99867.16;;;21.63;50.14
47154;BME280;32907;41.412;2.164;2023-03-13T15:51:16;99864.91;;;21.65;50.14